Time;durP1;ratioP1;P1;durP2;ratioP2;P2;SDS_P1;SDS_P2;PMS_P1;PMS_P2;Temp;Humidity;BMP_temperature;BMP_pressure;BME280_temperature;BME280_humidity;BME280_pressure;Samples;Min_cycle;Max_cycle;Signal;HPM_P1;HPM_P2
2021/09/14 00:01:16;;;;;;;21.82;13.65;;;;;;;23.52;49.83;101357.12;1773107;80;20958;-48
2021/09/14 00:03:42;;;;;;;22.87;14.30;;;;;;;23.51;49.99;101358.56;1774463;80;21493;-52
2021/09/14 00:06:09;;;;;;;22.32;14.35;;;;;;;23.50;50.02;101356.38;1774746;80;20953;-49
2021/09/14 00:08:35;;;;;;;18.40;13.40;;;;;;;23.50;49.98;101360.83;1781289;80;21033;-49
2021/09/14 00:11:03;;;;;;;25.00;14.58;;;;;;;23.47;49.81;101356.59;1772516;80;20997;-50
2021/09/14 00:13:32;;;;;;;21.40;13.72;;;;;;;23.50;49.45;101365.67;1774333;80;21071;-47
2021/09/14 00:15:58;;;;;;;22.20;13.50;;;;;;;23.47;49.23;101359.25;1771430;80;20938;-50
2021/09/14 00:18:26;;;;;;;19.70;13.85;;;;;;;23.47;49.25;101357.92;1771157;80;20966;-52
2021/09/14 00:20:53;;;;;;;19.27;13.80;;;;;;;23.45;49.30;101358.50;1767854;80;21056;-49
2021/09/14 00:23:22;;;;;;;18.55;13.50;;;;;;;23.43;49.44;101352.44;1774388;80;21559;-48
2021/09/14 00:25:48;;;;;;;23.47;14.33;;;;;;;23.42;49.60;101360.02;1774661;80;21036;-51
2021/09/14 00:28:14;;;;;;;17.27;13.55;;;;;;;23.40;49.68;101359.27;1774776;80;20954;-50
2021/09/14 00:30:41;;;;;;;21.75;13.70;;;;;;;23.37;49.85;101360.77;1774197;80;21057;-48
2021/09/14 00:33:08;;;;;;;21.15;13.95;;;;;;;23.36;49.89;101361.74;1771201;80;20970;-49
2021/09/14 00:35:35;;;;;;;18.82;12.88;;;;;;;23.34;49.89;101362.31;1771328;80;21065;-50
2021/09/14 00:38:02;;;;;;;20.35;13.40;;;;;;;23.32;50.00;101362.42;1772692;80;21009;-48
2021/09/14 00:40:28;;;;;;;23.25;13.55;;;;;;;23.30;50.38;101362.11;1773644;80;21521;-51
2021/09/14 00:42:55;;;;;;;14.98;12.13;;;;;;;23.28;50.65;101362.69;1772158;80;21014;-48
2021/09/14 00:45:23;;;;;;;20.62;13.35;;;;;;;23.28;50.76;101358.70;1771095;80;20989;-49
2021/09/14 00:47:49;;;;;;;20.12;12.90;;;;;;;23.28;50.90;101356.91;1771418;80;21497;-50
2021/09/14 00:50:16;;;;;;;22.22;12.85;;;;;;;23.30;51.01;101354.14;1773579;80;20970;-48
2021/09/14 00:52:42;;;;;;;20.97;13.53;;;;;;;23.33;51.20;101359.27;1774446;80;21037;-50
2021/09/14 00:55:10;;;;;;;18.07;14.03;;;;;;;23.37;51.19;101362.10;1774239;80;20995;-49
2021/09/14 00:57:37;;;;;;;19.32;13.43;;;;;;;23.40;51.07;101354.81;1775096;80;21034;-50
2021/09/14 01:00:06;;;;;;;20.08;13.80;;;;;;;23.42;50.98;101354.23;1774373;80;21025;-50
2021/09/14 01:02:32;;;;;;;21.00;14.00;;;;;;;23.47;50.84;101359.25;1774375;80;20997;-49
2021/09/14 01:04:59;;;;;;;21.35;14.60;;;;;;;23.49;50.46;101357.34;1774268;80;20991;-50
2021/09/14 01:07:25;;;;;;;16.27;13.45;;;;;;;23.50;50.29;101352.39;1780034;80;21052;-48
2021/09/14 01:09:54;;;;;;;20.97;14.58;;;;;;;23.51;50.33;101347.94;1774270;80;21525;-49
2021/09/14 01:12:22;;;;;;;19.55;15.05;;;;;;;23.51;50.29;101352.78;1773860;80;21015;-50
2021/09/14 01:14:55;;;;;;;17.70;14.58;;;;;;;23.51;50.20;101350.12;1748583;80;21009;-50
2021/09/14 01:17:22;;;;;;;19.98;13.72;;;;;;;23.51;50.28;101353.25;1772625;80;20981;-49
2021/09/14 01:19:50;;;;;;;21.10;13.58;;;;;;;23.50;50.36;101355.52;1775923;80;21048;-50
2021/09/14 01:22:17;;;;;;;15.98;13.22;;;;;;;23.48;50.42;101355.63;1774827;80;20985;-48
2021/09/14 01:24:45;;;;;;;20.10;13.50;;;;;;;23.48;50.48;101363.59;1774315;80;20986;-49
2021/09/14 01:27:13;;;;;;;24.43;15.35;;;;;;;23.47;50.48;101357.92;1779296;80;21002;-50
2021/09/14 01:32:28;;;;;;;17.07;14.18;;;;;;;23.48;50.37;101356.95;1771033;80;21060;-49
2021/09/14 01:34:55;;;;;;;21.65;15.48;;;;;;;23.51;50.27;101361.22;1771413;80;21470;-48
2021/09/14 01:37:23;;;;;;;21.95;15.00;;;;;;;23.54;50.31;101364.98;1773639;80;21481;-49
2021/09/14 01:39:50;;;;;;;21.07;15.35;;;;;;;23.56;50.33;101362.61;1774888;80;21009;-49
2021/09/14 01:42:17;;;;;;;20.68;15.45;;;;;;;23.52;50.53;101366.89;1773918;80;21029;-48
2021/09/14 01:44:44;;;;;;;21.60;16.02;;;;;;;23.55;50.37;101361.39;1774516;80;21009;-49
2021/09/14 01:47:12;;;;;;;18.27;15.32;;;;;;;23.50;50.54;101363.02;1774704;80;21025;-51
2021/09/14 01:49:41;;;;;;;20.32;15.45;;;;;;;23.52;50.59;101365.09;1771999;80;21041;-48
2021/09/14 01:52:08;;;;;;;23.77;15.60;;;;;;;23.49;50.83;101369.77;1771193;80;21489;-50
2021/09/14 01:54:35;;;;;;;21.95;15.43;;;;;;;23.47;50.74;101364.56;1772655;80;20977;-48
2021/09/14 01:57:04;;;;;;;20.55;15.65;;;;;;;23.50;50.61;101364.34;1773942;80;21033;-50
2021/09/14 01:59:33;;;;;;;23.55;15.80;;;;;;;23.50;50.61;101364.34;1772956;80;21063;-48
2021/09/14 02:04:52;;;;;;;25.65;16.02;;;;;;;23.48;50.81;101359.61;1785036;80;21005;-48
2021/09/14 02:58:38;;;;;;;25.80;15.50;;;;;;;23.32;50.68;101392.97;1771918;80;21071;-51
2021/09/14 02:59:26;;;;;;;26.05;16.87;;;;;;;23.31;50.84;101398.32;1776463;80;21054;-49
2021/09/14 03:01:55;;;;;;;21.35;15.68;;;;;;;23.29;50.91;101397.56;1755416;80;21517;-49
2021/09/14 03:04:22;;;;;;;19.50;15.05;;;;;;;23.26;50.86;101405.75;1767360;80;21031;-48
2021/09/14 03:06:49;;;;;;;19.65;15.40;;;;;;;23.25;51.00;101404.02;1769046;80;21525;-50
2021/09/14 03:09:19;;;;;;;27.02;16.23;;;;;;;23.25;50.67;101402.70;1777421;80;21018;-50
2021/09/14 03:11:47;;;;;;;20.35;15.00;;;;;;;23.26;50.73;101411.05;1763219;80;21001;-48
2021/09/14 03:14:15;;;;;;;23.60;15.80;;;;;;;23.27;50.63;101414.07;1767114;80;21525;-48
2021/09/14 03:16:44;;;;;;;18.23;14.90;;;;;;;23.25;50.22;101410.20;1772283;80;21564;-51
2021/09/14 03:19:11;;;;;;;20.95;15.68;;;;;;;23.23;50.31;101413.42;1777017;80;21030;-49
2021/09/14 03:21:40;;;;;;;18.50;16.20;;;;;;;23.23;50.22;101413.89;1767535;80;21038;-51
2021/09/14 03:24:08;;;;;;;18.98;15.63;;;;;;;23.21;50.08;101418.45;1769297;80;21054;-49
2021/09/14 03:26:35;;;;;;;19.92;15.75;;;;;;;23.18;50.00;101418.66;1769173;80;21021;-49
2021/09/14 03:29:02;;;;;;;19.17;14.63;;;;;;;23.19;50.09;101417.70;1769042;80;20989;-51
2021/09/14 03:31:30;;;;;;;21.50;16.48;;;;;;;23.15;50.16;101418.84;1765836;80;21065;-51
2021/09/14 03:33:57;;;;;;;20.65;15.63;;;;;;;23.12;50.07;101425.69;1767691;80;21498;-48
2021/09/14 03:36:24;;;;;;;24.77;16.10;;;;;;;23.15;50.28;101429.45;1765622;80;21029;-50
2021/09/14 03:38:51;;;;;;;18.73;15.65;;;;;;;23.14;50.66;101425.12;1766485;80;21470;-54
2021/09/14 03:41:17;;;;;;;20.50;15.50;;;;;;;23.15;50.83;101432.12;1768488;80;21010;-49
2021/09/14 03:43:44;;;;;;;19.80;15.50;;;;;;;23.18;50.76;101434.59;1767164;80;21531;-50
2021/09/14 03:46:11;;;;;;;19.25;16.07;;;;;;;23.18;50.42;101439.91;1766514;80;20986;-50
2021/09/14 03:48:38;;;;;;;20.55;16.40;;;;;;;23.19;50.48;101445.58;1765760;80;21033;-48
2021/09/14 03:51:05;;;;;;;21.93;16.60;;;;;;;23.21;50.75;101445.00;1766449;80;21477;-51
2021/09/14 03:53:32;;;;;;;27.10;15.93;;;;;;;23.22;50.97;101445.39;1768951;80;21025;-48
2021/09/14 03:55:59;;;;;;;22.32;16.00;;;;;;;23.23;50.75;101448.41;1769294;80;20981;-50
2021/09/14 03:58:25;;;;;;;21.33;17.25;;;;;;;23.22;50.88;101443.60;1778336;80;21033;-48
2021/09/14 04:00:53;;;;;;;24.20;16.45;;;;;;;23.22;51.02;101449.38;1769227;80;21009;-50
2021/09/14 04:06:08;;;;;;;21.62;17.17;;;;;;;23.18;51.16;101451.38;1721138;83;21518;-50
2021/09/14 04:11:13;;;;;;;26.42;17.15;;;;;;;23.12;51.22;101454.89;1724052;83;21570;-49
2021/09/14 04:13:41;;;;;;;25.32;16.93;;;;;;;23.09;51.40;101457.72;1723975;83;21113;-48
2021/09/14 04:16:08;;;;;;;21.20;16.42;;;;;;;23.07;51.26;101458.30;1724035;83;21104;-51
2021/09/14 04:18:34;;;;;;;21.35;16.95;;;;;;;23.11;51.08;101459.80;1724050;83;21518;-50
2021/09/14 04:21:02;;;;;;;21.97;16.97;;;;;;;23.09;51.19;101460.37;1724038;83;21084;-54
2021/09/14 04:23:30;;;;;;;23.07;17.95;;;;;;;23.10;51.31;101458.95;1724165;83;21065;-50
2021/09/14 04:25:57;;;;;;;20.43;16.60;;;;;;;23.09;51.27;101457.26;1724430;83;20986;-51
2021/09/14 04:28:24;;;;;;;21.02;17.12;;;;;;;23.09;51.18;101459.05;1723995;83;21584;-50
2021/09/14 04:30:51;;;;;;;21.80;16.87;;;;;;;23.07;51.46;101463.60;1723638;83;21537;-48
2021/09/14 04:33:18;;;;;;;26.05;17.37;;;;;;;23.06;51.72;101463.23;1719589;83;21062;-49
2021/09/14 04:35:46;;;;;;;22.05;16.37;;;;;;;23.06;51.75;101461.91;1719556;83;21061;-49
2021/09/14 04:38:13;;;;;;;24.85;17.02;;;;;;;23.05;51.67;101463.70;1718452;83;21002;-50
2021/09/14 04:40:39;;;;;;;22.65;16.45;;;;;;;23.01;51.74;101462.66;1719841;83;21096;-50
2021/09/14 04:43:07;;;;;;;21.82;16.70;;;;;;;23.02;51.98;101467.86;1719466;83;21105;-53
2021/09/14 04:45:33;;;;;;;20.08;16.05;;;;;;;23.00;52.24;101470.26;1719765;83;21072;-50
2021/09/14 04:48:00;;;;;;;19.55;16.75;;;;;;;22.96;52.53;101478.00;1719562;83;21033;-50
2021/09/14 04:50:29;;;;;;;20.17;16.48;;;;;;;23.01;52.56;101477.26;1719474;83;21108;-49
2021/09/14 04:52:56;;;;;;;23.20;17.07;;;;;;;23.00;52.23;101479.55;1719763;83;21026;-48
2021/09/14 04:55:23;;;;;;;24.55;16.20;;;;;;;22.95;52.34;101478.97;1719607;83;21030;-49
2021/09/14 04:57:50;;;;;;;19.40;16.17;;;;;;;22.94;52.18;101472.80;1706707;83;21085;-50
2021/09/14 05:00:18;;;;;;;22.58;16.48;;;;;;;22.95;52.01;101477.17;1719687;83;21026;-49
2021/09/14 05:02:45;;;;;;;24.25;17.25;;;;;;;22.97;52.29;101480.58;1756741;80;21029;-48
2021/09/14 05:05:11;;;;;;;25.10;17.12;;;;;;;22.97;52.19;101478.40;1770778;80;20998;-50
2021/09/14 05:07:38;;;;;;;18.87;15.98;;;;;;;22.99;52.26;101480.02;1770011;80;21037;-49
2021/09/14 05:10:07;;;;;;;57.98;19.70;;;;;;;23.00;52.24;101482.20;1774001;80;20989;-48
2021/09/14 05:12:35;;;;;;;23.80;17.45;;;;;;;22.99;51.78;101483.13;1766276;80;21026;-49
2021/09/14 05:15:06;;;;;;;21.60;16.73;;;;;;;23.00;51.73;101479.05;1769649;80;21499;-49
2021/09/14 05:17:51;;;;;;;22.73;17.35;;;;;;;23.03;51.57;101489.96;1765700;80;21037;-47
2021/09/14 05:20:35;;;;;;;22.55;15.65;;;;;;;23.04;51.81;101490.36;1774526;80;21014;-48
2021/09/14 05:23:12;;;;;;;21.45;17.75;;;;;;;23.06;51.83;101491.11;1765222;80;21541;-50
2021/09/14 05:25:39;;;;;;;26.23;17.75;;;;;;;23.09;51.49;101490.91;1757007;80;21030;-51
2021/09/14 05:28:09;;;;;;;19.48;17.12;;;;;;;23.07;51.98;101495.45;1769819;80;21009;-49
2021/09/14 05:30:38;;;;;;;25.02;17.17;;;;;;;23.07;52.00;101491.48;1769604;80;21037;-49
2021/09/14 05:33:04;;;;;;;22.15;17.15;;;;;;;23.06;52.36;101491.94;1778194;80;21546;-50
2021/09/14 05:35:37;;;;;;;27.77;18.27;;;;;;;23.06;52.22;101493.77;1762163;80;21026;-48
2021/09/14 05:38:03;;;;;;;22.48;16.60;;;;;;;23.06;52.23;101496.42;1728472;82;21036;-50
2021/09/14 05:40:30;;;;;;;21.12;17.27;;;;;;;23.05;52.58;101493.38;1735484;82;21017;-50
2021/09/14 05:42:58;;;;;;;24.12;17.90;;;;;;;23.02;52.90;101496.23;1731577;82;21501;-51
2021/09/14 05:45:25;;;;;;;22.65;16.95;;;;;;;23.06;53.05;101499.08;1737463;82;20991;-48
2021/09/14 05:47:52;;;;;;;26.57;17.90;;;;;;;23.08;52.84;101505.14;1699480;83;21042;-47
2021/09/14 05:50:20;;;;;;;29.12;18.55;;;;;;;23.11;53.00;101499.62;1735128;82;20994;-48
2021/09/14 05:52:47;;;;;;;24.05;17.20;;;;;;;23.17;53.11;101507.21;1724906;82;21025;-50
2021/09/14 05:55:15;;;;;;;26.02;17.70;;;;;;;23.22;53.23;101499.83;1730693;82;21039;-50
2021/09/14 05:57:41;;;;;;;22.35;18.00;;;;;;;23.27;52.65;101508.34;1720821;82;21046;-50
2021/09/14 06:00:11;;;;;;;25.80;18.85;;;;;;;23.28;52.66;101503.42;1737646;82;21074;-50
2021/09/14 06:02:39;;;;;;;21.42;16.75;;;;;;;23.32;52.80;101502.31;1733012;82;21026;-49
2021/09/14 06:05:08;;;;;;;23.85;18.40;;;;;;;23.39;52.48;101508.46;1674107;85;21081;-52
2021/09/14 06:07:36;;;;;;;21.90;19.05;;;;;;;23.44;52.42;101502.86;1689113;85;21009;-49
2021/09/14 06:10:04;;;;;;;21.45;17.32;;;;;;;23.48;52.51;101504.37;1688869;85;21558;-48
2021/09/14 06:12:33;;;;;;;21.40;18.07;;;;;;;23.52;52.37;101500.58;1689245;85;21046;-50
2021/09/14 06:15:01;;;;;;;20.12;17.10;;;;;;;23.58;52.50;101501.98;1649216;86;21106;-53
2021/09/14 06:17:30;;;;;;;19.07;16.97;;;;;;;23.62;52.50;101500.36;1686118;85;21019;-49
2021/09/14 06:19:58;;;;;;;21.57;17.73;;;;;;;23.66;52.49;101505.85;1689093;85;21062;-48
2021/09/14 06:22:26;;;;;;;23.77;17.27;;;;;;;23.73;52.27;101507.64;1689253;85;21042;-48
2021/09/14 06:24:53;;;;;;;25.77;17.52;;;;;;;23.78;52.02;101510.38;1688939;85;21614;-50
2021/09/14 06:27:21;;;;;;;23.20;17.25;;;;;;;23.85;51.82;101502.86;1692993;83;21061;-52
2021/09/14 06:29:48;;;;;;;29.00;18.80;;;;;;;23.90;51.67;101512.27;1716952;83;21111;-49
2021/09/14 06:32:15;;;;;;;21.33;18.00;;;;;;;24.00;51.55;101515.16;1705683;83;21582;-50
2021/09/14 06:34:55;;;;;;;23.02;17.37;;;;;;;24.07;51.22;101512.02;1708084;83;21486;-48
2021/09/14 06:37:24;;;;;;;19.92;16.85;;;;;;;24.14;51.13;101517.80;1770249;80;21002;-50
2021/09/14 06:39:51;;;;;;;21.25;18.77;;;;;;;24.19;51.13;101516.53;1768247;80;21029;-52
2021/09/14 06:42:20;;;;;;;24.20;18.23;;;;;;;24.23;51.34;101515.37;1768561;80;21552;-50
2021/09/14 06:44:49;;;;;;;22.20;18.30;;;;;;;24.25;51.10;101518.78;1768826;80;21493;-50
2021/09/14 06:47:17;;;;;;;21.17;17.82;;;;;;;24.29;50.94;101523.91;1764854;80;21045;-50
2021/09/14 06:49:44;;;;;;;23.45;18.48;;;;;;;24.29;50.88;101522.58;1771355;80;21556;-47
2021/09/14 06:52:11;;;;;;;24.60;18.05;;;;;;;24.33;51.00;101520.09;1782947;80;20986;-48
2021/09/14 06:54:38;;;;;;;21.70;18.48;;;;;;;24.36;50.85;101522.56;1769575;80;20998;-47
2021/09/14 06:57:06;;;;;;;22.50;17.60;;;;;;;24.41;50.81;101519.09;1768525;80;21065;-49
2021/09/14 06:59:33;;;;;;;23.35;18.92;;;;;;;24.47;50.69;101523.53;1768182;80;21021;-52
2021/09/14 07:02:01;;;;;;;21.82;18.37;;;;;;;24.52;50.51;101523.23;1770279;80;21275;-51
2021/09/14 07:04:28;;;;;;;21.62;18.40;;;;;;;24.57;50.41;101527.75;1774184;80;20970;-51
2021/09/14 07:06:55;;;;;;;24.98;18.67;;;;;;;24.59;50.20;101531.16;1771605;80;21028;-48
2021/09/14 07:09:22;;;;;;;20.48;17.87;;;;;;;24.62;49.99;101526.97;1771662;80;21491;-48
2021/09/14 07:11:49;;;;;;;24.07;19.23;;;;;;;24.66;49.82;101531.13;1767900;80;20989;-48
2021/09/14 07:14:16;;;;;;;22.65;18.45;;;;;;;24.67;49.54;101535.01;1770354;80;21042;-46
2021/09/14 07:16:44;;;;;;;21.42;18.23;;;;;;;24.70;49.52;101537.95;1768145;80;21045;-47
2021/09/14 07:19:12;;;;;;;19.55;17.48;;;;;;;24.71;49.63;101533.02;1768474;80;21093;-47
2021/09/14 07:21:39;;;;;;;25.20;17.90;;;;;;;24.75;49.74;101528.71;1778355;80;21038;-46
2021/09/14 07:24:07;;;;;;;22.87;17.60;;;;;;;24.79;49.46;101530.71;1769901;80;21025;-47
2021/09/14 07:26:34;;;;;;;26.40;18.23;;;;;;;24.81;49.16;101523.47;1771685;80;21018;-51
2021/09/14 07:29:01;;;;;;;20.32;18.10;;;;;;;24.85;48.92;101528.95;1768328;80;21022;-46
2021/09/14 07:31:30;;;;;;;21.23;18.27;;;;;;;24.87;49.11;101525.70;1768740;80;20998;-49
2021/09/14 07:33:58;;;;;;;21.12;16.93;;;;;;;24.89;49.06;101526.45;1767494;80;21525;-48
2021/09/14 07:36:25;;;;;;;27.45;18.35;;;;;;;24.93;49.03;101526.61;1774013;80;21002;-46
2021/09/14 07:38:52;;;;;;;23.45;18.15;;;;;;;24.96;48.62;101526.38;1774779;80;21032;-46
2021/09/14 07:41:20;;;;;;;23.77;18.65;;;;;;;24.98;48.65;101529.79;1774004;80;21497;-48
2021/09/14 07:43:48;;;;;;;29.50;19.77;;;;;;;24.99;48.90;101519.05;1774245;80;21061;-49
2021/09/14 07:46:16;;;;;;;24.82;18.60;;;;;;;25.02;49.20;101523.30;1773021;80;21026;-49
2021/09/14 07:48:44;;;;;;;22.17;18.82;;;;;;;25.07;49.47;101523.84;1775853;80;21549;-47
2021/09/14 07:51:11;;;;;;;22.15;19.12;;;;;;;25.12;49.64;101524.85;1778816;80;21017;-46
2021/09/14 07:53:37;;;;;;;21.17;18.75;;;;;;;25.15;49.79;101520.16;1774481;80;20978;-48
2021/09/14 07:56:04;;;;;;;22.45;19.05;;;;;;;25.20;49.68;101526.03;1774667;80;21013;-50
2021/09/14 07:58:31;;;;;;;23.70;18.25;;;;;;;25.25;49.74;101525.67;1771777;80;20993;-49
2021/09/14 08:00:57;;;;;;;25.25;18.50;;;;;;;25.29;49.66;101516.03;1771351;80;21024;-49
2021/09/14 08:03:24;;;;;;;22.13;19.23;;;;;;;25.33;49.34;101521.98;1779592;80;21017;-54
2021/09/14 08:05:51;;;;;;;26.57;18.90;;;;;;;25.37;49.16;101526.17;1774694;80;21049;-48
2021/09/14 08:08:18;;;;;;;30.30;21.20;;;;;;;25.40;49.25;101518.80;1772414;80;21486;-48
2021/09/14 08:10:46;;;;;;;22.93;19.17;;;;;;;25.44;49.51;101522.12;1771683;80;21014;-48
2021/09/14 08:13:15;;;;;;;21.48;19.07;;;;;;;25.48;49.54;101524.46;1771378;80;21013;-48
2021/09/14 08:15:42;;;;;;;30.02;20.05;;;;;;;25.57;49.60;101527.81;1772522;80;21049;-49
2021/09/14 08:18:09;;;;;;;29.48;19.23;;;;;;;25.57;49.60;101527.81;1774728;80;20961;-49
2021/09/14 08:20:36;;;;;;;22.77;19.07;;;;;;;25.62;49.87;101529.64;1774368;80;21522;-50
2021/09/14 08:23:03;;;;;;;22.32;18.02;;;;;;;25.66;49.53;101524.46;1774620;80;21080;-52
2021/09/14 08:25:30;;;;;;;23.77;18.73;;;;;;;25.74;49.10;101526.09;1773787;80;21049;-48
2021/09/14 08:27:57;;;;;;;27.20;18.55;;;;;;;25.80;48.66;101526.97;1770548;80;21029;-49
2021/09/14 08:30:25;;;;;;;29.67;18.20;;;;;;;25.84;48.47;101521.78;1784140;80;21552;-46
2021/09/14 08:32:52;;;;;;;21.87;17.80;;;;;;;25.90;48.51;101520.51;1771187;80;21073;-47
2021/09/14 08:35:19;;;;;;;22.67;19.48;;;;;;;25.99;48.89;101528.31;1772914;80;21037;-49
2021/09/14 08:37:48;;;;;;;20.05;18.07;;;;;;;26.06;49.04;101522.88;1772663;80;21017;-48
2021/09/14 08:40:15;;;;;;;22.17;19.00;;;;;;;26.11;48.99;101522.10;1773981;80;21049;-51
2021/09/14 08:42:42;;;;;;;24.45;19.25;;;;;;;26.20;49.29;101516.06;1771054;80;20995;-47
2021/09/14 08:45:10;;;;;;;22.10;18.05;;;;;;;26.20;49.29;101516.06;1771543;80;21017;-48
2021/09/14 08:47:38;;;;;;;25.77;18.95;;;;;;;26.28;49.50;101520.34;1788696;80;21509;-48
2021/09/14 08:50:06;;;;;;;21.23;18.85;;;;;;;26.39;49.89;101519.06;1772951;80;21018;-47
2021/09/14 08:52:34;;;;;;;25.15;19.65;;;;;;;26.39;49.89;101519.06;1771264;80;20922;-50
2021/09/14 08:55:02;;;;;;;28.42;20.15;;;;;;;26.51;49.64;101516.79;1770852;80;20989;-51
2021/09/14 08:57:29;;;;;;;26.12;18.90;;;;;;;26.51;49.64;101516.79;1775444;80;21067;-46
2021/09/14 08:59:57;;;;;;;24.10;18.23;;;;;;;26.58;49.66;101517.53;1774789;80;21536;-51
2021/09/14 09:02:23;;;;;;;19.42;17.30;;;;;;;26.67;49.35;101511.98;1774197;80;21005;-48
2021/09/14 09:05:01;;;;;;;26.15;19.40;;;;;;;26.79;48.45;101515.06;1779811;80;21022;-48
2021/09/14 09:07:36;;;;;;;21.90;18.42;;;;;;;26.79;48.45;101515.06;1784099;80;20990;-50
2021/09/14 09:10:14;;;;;;;23.05;17.90;;;;;;;26.92;49.34;101517.16;1774511;80;21001;-49
2021/09/14 09:12:44;;;;;;;21.20;17.77;;;;;;;26.92;49.34;101517.16;1773795;80;20990;-50
2021/09/14 09:15:29;;;;;;;21.05;18.77;;;;;;;26.97;48.50;101512.33;1776137;80;21025;-49
2021/09/14 09:18:12;;;;;;;23.55;18.73;;;;;;;27.01;48.40;101509.78;1775274;80;20999;-50
2021/09/14 09:20:41;;;;;;;22.05;17.70;;;;;;;27.04;48.48;101512.19;1719076;83;21045;-48
2021/09/14 09:23:11;;;;;;;20.10;17.55;;;;;;;27.07;47.92;101507.09;1715207;83;20990;-51
2021/09/14 09:25:38;;;;;;;20.30;18.13;;;;;;;27.08;47.52;101505.63;1780952;80;20994;-51
2021/09/14 09:28:19;;;;;;;22.10;17.75;;;;;;;27.10;47.30;101509.03;1780917;80;21026;-51
2021/09/14 09:30:59;;;;;;;20.02;17.27;;;;;;;27.15;46.98;101505.53;1771859;80;21069;-50
2021/09/14 09:33:28;;;;;;;25.35;18.25;;;;;;;27.20;47.25;101507.84;1719119;83;21089;-52
2021/09/14 09:36:05;;;;;;;20.75;16.85;;;;;;;27.26;47.51;101508.22;1711264;83;21551;-49
2021/09/14 09:38:55;;;;;;;21.70;17.57;;;;;;;27.32;47.28;101508.20;1770944;80;21073;-51
2021/09/14 09:41:19;;;;;;;19.67;17.57;;;;;;;27.36;47.45;101502.53;1772898;80;21025;-49
2021/09/14 09:43:48;;;;;;;20.60;16.57;;;;;;;27.40;47.58;101495.11;1770694;80;21041;-48
2021/09/14 09:46:21;;;;;;;21.77;16.00;;;;;;;27.44;47.77;101501.05;1773002;80;20978;-49
2021/09/14 09:48:48;;;;;;;21.90;16.57;;;;;;;27.46;47.82;101496.42;1777877;80;21042;-48
2021/09/14 09:51:16;;;;;;;18.45;16.52;;;;;;;27.51;47.46;101496.92;1780197;80;21007;-50
2021/09/14 09:53:43;;;;;;;17.17;15.38;;;;;;;27.56;47.35;101502.25;1785505;80;21045;-49
2021/09/14 09:56:10;;;;;;;18.25;16.37;;;;;;;27.59;47.37;101498.00;1771836;80;21537;-50
2021/09/14 09:58:39;;;;;;;19.92;16.57;;;;;;;27.66;47.38;101501.86;1778269;80;21022;-48
2021/09/14 10:01:15;;;;;;;19.67;16.17;;;;;;;27.70;47.24;101501.15;1787701;80;20978;-49
2021/09/14 10:04:13;;;;;;;19.48;16.25;;;;;;;27.72;47.21;101496.02;1709987;83;21627;-47
2021/09/14 10:06:47;;;;;;;18.37;16.48;;;;;;;27.76;47.19;101497.97;1709273;83;21116;-47
2021/09/14 10:09:14;;;;;;;19.65;16.20;;;;;;;27.80;47.31;101499.42;1709029;83;21023;-48
2021/09/14 10:11:42;;;;;;;18.98;15.70;;;;;;;27.84;47.08;101500.86;1709836;83;21063;-50
2021/09/14 10:14:15;;;;;;;18.25;15.00;;;;;;;27.88;46.76;101497.78;1710354;83;21674;-49
2021/09/14 10:16:46;;;;;;;19.10;15.53;;;;;;;27.92;46.29;101495.73;1708029;83;21033;-50
2021/09/14 10:19:28;;;;;;;18.73;16.15;;;;;;;27.96;45.90;101499.41;1707387;83;22313;-47
2021/09/14 10:22:12;;;;;;;19.82;17.02;;;;;;;28.01;45.76;101494.98;1711186;83;21040;-48
2021/09/14 10:24:45;;;;;;;19.75;16.52;;;;;;;28.05;45.93;101496.42;1714133;83;21099;-47
2021/09/14 10:27:27;;;;;;;19.73;16.93;;;;;;;28.09;46.00;101492.52;1722101;83;21027;-50
2021/09/14 10:29:58;;;;;;;17.73;15.95;;;;;;;28.09;46.28;101488.02;1721327;83;21074;-47
2021/09/14 10:32:26;;;;;;;17.50;15.80;;;;;;;28.15;46.02;101492.86;1713503;83;21618;-49
2021/09/14 10:34:56;;;;;;;17.42;15.55;;;;;;;28.19;45.70;101493.48;1707784;83;21151;-46
2021/09/14 10:37:31;;;;;;;19.62;16.85;;;;;;;28.23;45.60;101489.56;1713604;83;21491;-49
2021/09/14 10:40:14;;;;;;;18.30;15.98;;;;;;;28.29;45.09;101486.38;1710278;83;21016;-48
2021/09/14 10:42:47;;;;;;;17.75;15.80;;;;;;;28.34;44.68;101487.33;1716120;83;21009;-47
2021/09/14 10:45:16;;;;;;;19.25;15.53;;;;;;;28.39;44.49;101483.27;1712598;83;21011;-48
2021/09/14 10:47:46;;;;;;;23.25;15.93;;;;;;;28.45;44.71;101479.22;1710844;83;21067;-47
2021/09/14 10:50:17;;;;;;;17.85;15.28;;;;;;;28.50;44.89;101473.82;1713258;83;21031;-50
2021/09/14 10:52:43;;;;;;;17.15;15.38;;;;;;;28.53;44.82;101472.23;1709428;83;21492;-47
2021/09/14 10:55:13;;;;;;;16.62;14.30;;;;;;;28.58;44.66;101475.42;1711915;83;21023;-48
2021/09/14 10:57:50;;;;;;;16.87;14.85;;;;;;;28.60;44.45;101469.44;1711884;83;21083;-48
2021/09/14 11:00:31;;;;;;;18.30;14.63;;;;;;;28.65;44.22;101468.53;1716995;83;21063;-50
2021/09/14 11:02:59;;;;;;;19.55;14.50;;;;;;;28.69;43.64;101465.09;1720620;83;21003;-48
2021/09/14 11:05:28;;;;;;;18.05;15.23;;;;;;;28.74;43.29;101465.56;1720139;83;21527;-48
2021/09/14 11:08:08;;;;;;;15.48;14.10;;;;;;;28.76;43.24;101459.09;1768979;80;21076;-49
2021/09/14 11:10:42;;;;;;;15.88;14.18;;;;;;;28.82;43.83;101459.91;1784511;80;20990;-51
2021/09/14 11:13:22;;;;;;;17.40;13.22;;;;;;;28.88;44.43;101463.38;1779240;80;21033;-50
2021/09/14 11:16:00;;;;;;;19.57;14.10;;;;;;;28.91;44.19;101459.59;1769469;80;21097;-48
2021/09/14 11:18:30;;;;;;;16.10;14.47;;;;;;;28.94;43.53;101464.19;1627641;87;21043;-47
2021/09/14 11:21:06;;;;;;;16.05;13.72;;;;;;;28.97;43.48;101457.20;1628561;87;21144;-46
2021/09/14 11:23:34;;;;;;;16.87;13.85;;;;;;;29.02;43.33;101455.98;1612110;89;21655;-51
2021/09/14 11:26:00;;;;;;;15.45;12.35;;;;;;;29.08;42.88;101455.44;1614995;89;21101;-47
2021/09/14 11:28:27;;;;;;;14.10;12.60;;;;;;;29.14;42.43;101456.23;1615249;89;21085;-47
2021/09/14 11:30:59;;;;;;;15.05;12.68;;;;;;;29.19;42.32;101458.03;1615102;89;21058;-49
2021/09/14 11:33:28;;;;;;;13.40;12.00;;;;;;;29.22;42.10;101455.95;1613128;89;21562;-49
2021/09/14 11:35:58;;;;;;;13.08;11.83;;;;;;;29.28;41.70;101454.55;1614385;89;21085;-49
2021/09/14 11:38:27;;;;;;;13.65;12.20;;;;;;;29.32;41.62;101448.78;1570850;91;21531;-49
2021/09/14 11:40:57;;;;;;;12.45;11.15;;;;;;;29.36;41.69;101449.35;1567477;91;21672;-48
2021/09/14 11:43:30;;;;;;;15.65;11.48;;;;;;;29.39;41.72;101447.72;1570051;91;21496;-50
2021/09/14 11:45:57;;;;;;;15.25;12.00;;;;;;;29.43;41.22;101449.17;1569836;91;21563;-49
2021/09/14 11:48:29;;;;;;;11.78;10.58;;;;;;;29.47;40.98;101450.59;1574415;91;21076;-49
2021/09/14 11:51:10;;;;;;;18.17;11.55;;;;;;;29.48;41.11;101448.25;1566567;91;21070;-47
2021/09/14 11:53:39;;;;;;;12.53;11.30;;;;;;;29.51;40.82;101446.64;1566896;91;21023;-49
2021/09/14 11:56:13;;;;;;;11.65;10.28;;;;;;;29.53;40.40;101439.31;1575467;90;21147;-50
2021/09/14 11:58:46;;;;;;;16.20;10.75;;;;;;;29.56;40.59;101445.72;1574771;90;21109;-49
2021/09/14 12:01:18;;;;;;;13.22;11.05;;;;;;;29.60;40.90;101441.77;1573578;90;21072;-50
2021/09/14 12:03:51;;;;;;;13.15;11.03;;;;;;;29.64;41.33;101440.50;1576923;90;21100;-48
2021/09/14 12:06:32;;;;;;;12.50;11.30;;;;;;;29.66;41.43;101443.89;1578300;90;21069;-47
2021/09/14 12:09:07;;;;;;;16.95;11.57;;;;;;;29.68;41.62;101437.41;1520954;94;21665;-48
2021/09/14 12:11:35;;;;;;;12.37;10.82;;;;;;;29.71;41.90;101428.25;1462437;96;21195;-49
2021/09/14 12:14:04;;;;;;;;;;;;;;;29.73;41.36;101428.98;1467466;98;21597;-49
2021/09/14 12:16:37;;;;;;;12.05;10.82;;;;;;;29.75;40.67;101431.03;1455387;95;20130;-49
2021/09/14 12:19:03;;;;;;;14.15;10.65;;;;;;;29.76;40.21;101432.71;1453133;97;21098;-51